createdAt,value
2018-07-21T00:00:02.998Z,0
2018-07-21T00:05:02.580Z,0
2018-07-21T00:10:03.056Z,0
2018-07-21T00:15:02.467Z,0
2018-07-21T00:20:02.942Z,0
2018-07-21T00:25:03.305Z,0
2018-07-21T00:30:02.687Z,0
2018-07-21T00:35:03.229Z,0
2018-07-21T00:40:02.695Z,0
2018-07-21T00:45:03.028Z,0
2018-07-21T00:50:02.438Z,0
2018-07-21T00:55:02.901Z,0
2018-07-21T01:00:03.225Z,0
2018-07-21T01:05:02.573Z,0
2018-07-21T01:10:03.010Z,0
2018-07-21T01:15:02.476Z,0
2018-07-21T01:20:02.875Z,0
2018-07-21T01:25:03.190Z,0
2018-07-21T01:30:02.656Z,0
2018-07-21T01:35:03.001Z,0
2018-07-21T01:40:02.458Z,0
2018-07-21T01:45:03.216Z,0
2018-07-21T01:50:02.615Z,0
2018-07-21T01:55:03.030Z,0
2018-07-21T02:00:02.457Z,0
2018-07-21T02:05:02.980Z,0
2018-07-21T02:10:02.464Z,0
2018-07-21T02:15:02.905Z,0
2018-07-21T02:20:02.392Z,0
2018-07-21T02:25:02.817Z,0
2018-07-21T02:30:03.228Z,0
2018-07-21T02:35:02.624Z,0
2018-07-21T02:40:03.025Z,0
2018-07-21T02:45:02.426Z,0
2018-07-21T02:50:02.881Z,0
2018-07-21T02:55:02.350Z,0
2018-07-21T03:00:03.317Z,0
2018-07-21T03:05:02.833Z,1
2018-07-21T03:10:03.428Z,3
2018-07-21T03:15:03.311Z,6
2018-07-21T03:20:02.774Z,11
2018-07-21T03:25:03.255Z,18
2018-07-21T03:30:02.697Z,25
2018-07-21T03:35:03.137Z,36
2018-07-21T03:40:02.577Z,47
2018-07-21T03:45:03.014Z,56
2018-07-21T03:50:02.406Z,69
2018-07-21T03:55:02.969Z,94
2018-07-21T04:00:02.494Z,126
2018-07-21T04:05:02.915Z,256
2018-07-21T04:10:02.406Z,478
2018-07-21T04:15:02.737Z,597
2018-07-21T04:20:03.184Z,671
2018-07-21T04:25:02.694Z,814
2018-07-21T04:30:03.104Z,955
2018-07-21T04:35:02.522Z,1000
2018-07-21T04:40:03.029Z,1000
2018-07-21T04:45:02.439Z,1000
2018-07-21T04:50:02.790Z,1000
2018-07-21T04:55:03.167Z,1000
2018-07-21T05:00:02.604Z,2000
2018-07-21T05:05:03.019Z,2000
2018-07-21T05:10:02.546Z,2000
2018-07-21T05:15:03.012Z,2000
2018-07-21T05:20:02.601Z,3000
2018-07-21T05:25:02.336Z,3000
2018-07-21T05:30:02.783Z,3000
2018-07-21T05:35:03.193Z,3000
2018-07-21T05:40:02.704Z,3000
2018-07-21T05:45:03.220Z,3000
2018-07-21T05:50:02.865Z,3000
2018-07-21T05:55:02.390Z,2000
2018-07-21T06:00:02.809Z,2000
2018-07-21T06:05:03.436Z,2000
2018-07-21T06:10:02.831Z,3000
2018-07-21T06:15:02.386Z,4000
2018-07-21T06:20:02.840Z,4000
2018-07-21T06:25:03.291Z,5000
2018-07-21T06:30:02.872Z,6000
2018-07-21T06:35:02.371Z,8000
2018-07-21T06:40:02.913Z,9000
2018-07-21T06:45:02.361Z,10000
2018-07-21T06:50:02.833Z,11000
2018-07-21T06:55:03.188Z,12000
2018-07-21T07:00:02.560Z,12000
2018-07-21T07:05:03.074Z,11000
2018-07-21T07:10:02.564Z,10000
2018-07-21T07:15:03.304Z,10000
2018-07-21T07:20:02.756Z,10000
2018-07-21T07:25:02.334Z,10000
2018-07-21T07:30:02.738Z,11000
2018-07-21T07:35:03.237Z,11000
2018-07-21T07:40:02.775Z,11000
2018-07-21T07:45:03.235Z,9000
2018-07-21T07:50:02.623Z,8000
2018-07-21T07:55:03.008Z,7000
2018-07-21T08:00:02.398Z,6000
2018-07-21T08:05:02.844Z,7000
2018-07-21T08:10:02.339Z,19000
2018-07-21T08:15:02.789Z,33000
2018-07-21T08:20:03.266Z,34000
2018-07-21T08:25:02.807Z,36000
2018-07-21T08:30:03.336Z,36000
2018-07-21T08:35:02.756Z,37000
2018-07-21T08:40:03.220Z,39000
2018-07-21T08:45:02.674Z,41000
2018-07-21T08:50:03.084Z,42000
2018-07-21T08:55:02.589Z,43000
2018-07-21T09:00:02.987Z,42000
2018-07-21T09:05:02.374Z,43000
2018-07-21T09:10:02.913Z,44000
2018-07-21T09:15:02.310Z,45000
2018-07-21T09:20:02.821Z,45000
2018-07-21T09:25:03.231Z,46000
2018-07-21T09:30:02.723Z,47000
2018-07-21T09:35:03.153Z,47000
2018-07-21T09:40:02.652Z,48000
2018-07-21T09:45:03.160Z,48000
2018-07-21T09:50:02.577Z,48000
2018-07-21T09:55:02.920Z,47000
2018-07-21T10:00:03.447Z,48000
2018-07-21T10:05:03.116Z,48000
2018-07-21T10:10:02.625Z,47000
2018-07-21T10:15:02.993Z,48000
2018-07-21T10:20:02.459Z,48000
2018-07-21T10:25:02.937Z,48000
2018-07-21T10:30:02.425Z,47000
2018-07-21T10:35:02.792Z,47000
2018-07-21T10:40:03.220Z,47000
2018-07-21T10:45:02.571Z,47000
2018-07-21T10:50:03.066Z,48000
2018-07-21T10:55:02.484Z,48000
2018-07-21T11:00:02.891Z,50000
2018-07-21T11:05:02.350Z,35000
2018-07-21T11:10:02.817Z,36000
2018-07-21T11:15:03.322Z,35000
2018-07-21T11:20:02.977Z,31000
2018-07-21T11:25:02.509Z,32000
2018-07-21T11:30:02.880Z,33000
2018-07-21T11:35:02.486Z,54000
2018-07-21T11:40:03.006Z,30000
2018-07-21T11:45:02.417Z,18000
2018-07-21T11:50:02.903Z,39000
2018-07-21T11:55:03.345Z,31000
2018-07-21T12:00:02.796Z,30000
2018-07-21T12:05:03.252Z,28000
2018-07-21T12:10:02.701Z,30000
2018-07-21T12:15:03.093Z,49000
2018-07-21T12:20:02.548Z,38000
2018-07-21T12:25:03.012Z,49000
2018-07-21T12:30:02.467Z,45000
2018-07-21T12:35:02.901Z,46000
2018-07-21T12:40:03.348Z,26000
2018-07-21T12:45:02.987Z,47000
2018-07-21T12:50:02.605Z,24000
2018-07-21T12:55:02.997Z,15000
2018-07-21T13:00:02.364Z,14000
2018-07-21T13:05:02.788Z,35000
2018-07-21T13:10:02.485Z,24000
2018-07-21T13:15:02.928Z,17000
2018-07-21T13:20:03.290Z,14000
2018-07-21T13:25:02.714Z,13000
2018-07-21T13:30:03.327Z,12000
2018-07-21T13:35:02.792Z,23000
2018-07-21T13:40:03.267Z,16000
2018-07-21T13:45:02.809Z,40000
2018-07-21T13:50:03.279Z,40000
2018-07-21T13:55:02.826Z,15000
2018-07-21T14:00:02.702Z,25000
2018-07-21T14:05:03.188Z,37000
2018-07-21T14:10:02.711Z,35000
2018-07-21T14:15:02.722Z,24000
2018-07-21T14:20:03.216Z,22000
2018-07-21T14:25:02.739Z,12000
2018-07-21T14:30:03.265Z,30000
2018-07-21T14:35:03.114Z,12000
2018-07-21T14:40:02.881Z,18000
2018-07-21T14:45:03.290Z,9000
2018-07-21T14:50:02.677Z,5000
2018-07-21T14:55:03.386Z,4000
2018-07-21T15:00:02.416Z,4000
2018-07-21T15:05:02.879Z,4000
2018-07-21T15:10:02.400Z,5000
2018-07-21T15:15:02.852Z,5000
2018-07-21T15:20:02.391Z,6000
2018-07-21T15:25:02.764Z,7000
2018-07-21T15:30:03.146Z,12000
2018-07-21T15:35:02.610Z,22000
2018-07-21T15:40:03.039Z,21000
2018-07-21T15:45:02.401Z,15000
2018-07-21T15:50:02.779Z,9000
2018-07-21T15:55:03.152Z,8000
2018-07-21T16:00:02.583Z,16000
2018-07-21T16:05:03.133Z,17000
2018-07-21T16:10:02.558Z,16000
2018-07-21T16:15:04.436Z,15000
2018-07-21T16:20:02.489Z,14000
2018-07-21T16:25:02.940Z,14000
2018-07-21T16:30:03.313Z,13000
2018-07-21T16:35:02.778Z,12000
2018-07-21T16:40:03.273Z,11000
2018-07-21T16:45:02.720Z,11000
2018-07-21T16:50:03.058Z,10000
2018-07-21T16:55:02.499Z,6000
2018-07-21T17:00:03.071Z,10000
2018-07-21T17:05:02.869Z,10000
2018-07-21T17:10:02.349Z,10000
2018-07-21T17:15:02.822Z,9000
2018-07-21T17:20:03.183Z,8000
2018-07-21T17:25:02.597Z,7000
2018-07-21T17:30:03.069Z,7000
2018-07-21T17:35:02.968Z,7000
2018-07-21T17:40:02.443Z,6000
2018-07-21T17:45:02.791Z,6000
2018-07-21T17:50:03.223Z,5000
2018-07-21T17:55:02.673Z,5000
2018-07-21T18:00:03.080Z,4000
2018-07-21T18:05:02.595Z,4000
2018-07-21T18:10:03.082Z,4000
2018-07-21T18:15:02.552Z,4000
2018-07-21T18:20:03.054Z,3000
2018-07-21T18:25:02.680Z,3000
2018-07-21T18:30:03.162Z,2000
2018-07-21T18:35:02.571Z,2000
2018-07-21T18:40:03.109Z,2000
2018-07-21T18:45:02.863Z,2000
2018-07-21T18:50:03.281Z,1000
2018-07-21T18:55:02.806Z,1000
2018-07-21T19:00:03.207Z,1000
2018-07-21T19:05:02.698Z,1000
2018-07-21T19:10:03.178Z,867
2018-07-21T19:15:02.593Z,604
2018-07-21T19:20:02.981Z,475
2018-07-21T19:25:02.351Z,360
2018-07-21T19:30:02.667Z,232
2018-07-21T19:35:03.045Z,103
2018-07-21T19:40:02.602Z,81
2018-07-21T19:45:02.489Z,54
2018-07-21T19:50:02.913Z,46
2018-07-21T19:55:03.329Z,34
2018-07-21T20:00:03.065Z,24
2018-07-21T20:05:02.583Z,15
2018-07-21T20:10:03.031Z,7
2018-07-21T20:15:02.495Z,4
2018-07-21T20:20:02.892Z,1
2018-07-21T20:25:03.263Z,1
2018-07-21T20:30:02.751Z,0
2018-07-21T20:35:03.092Z,0
2018-07-21T20:40:02.630Z,0
2018-07-21T20:45:02.952Z,0
2018-07-21T20:50:02.399Z,0
2018-07-21T20:55:02.794Z,0
2018-07-21T21:00:03.185Z,0
2018-07-21T21:05:02.838Z,0
2018-07-21T21:10:02.335Z,0
2018-07-21T21:15:02.754Z,0
2018-07-21T21:20:03.272Z,0
2018-07-21T21:25:02.706Z,0
2018-07-21T21:30:03.400Z,0
2018-07-21T21:35:02.827Z,0
2018-07-21T21:40:03.291Z,0
2018-07-21T21:45:02.770Z,0
2018-07-21T21:50:03.158Z,0
2018-07-21T21:55:02.530Z,0
2018-07-21T22:00:02.922Z,0
2018-07-21T22:05:03.313Z,0
2018-07-21T22:10:02.750Z,0
2018-07-21T22:15:03.169Z,0
2018-07-21T22:20:02.617Z,0
2018-07-21T22:25:03.070Z,0
2018-07-21T22:30:02.560Z,0
2018-07-21T22:35:03.059Z,0
2018-07-21T22:40:02.518Z,0
2018-07-21T22:45:02.883Z,0
2018-07-21T22:50:02.335Z,0
2018-07-21T22:55:02.801Z,0
2018-07-21T23:00:03.264Z,0
2018-07-21T23:05:02.661Z,0
2018-07-21T23:10:03.267Z,0
2018-07-21T23:15:02.697Z,0
2018-07-21T23:20:03.101Z,0
2018-07-21T23:25:02.460Z,0
2018-07-21T23:30:02.847Z,0
2018-07-21T23:35:03.294Z,0
2018-07-21T23:40:02.706Z,0
2018-07-21T23:45:03.056Z,0
2018-07-21T23:50:02.473Z,0
2018-07-21T23:55:02.844Z,0
